עמוד ראשי
METAR-TAF:

METAR-TAF

שדות תעופה :

Phillip Goldston

Belize City, בליז

קו רוחב: 17-32N, קו אורך: 088-18W, גובה: 5מטר

תצפית מזג אוויר נוכחית

הדו"ח נערך לפני 5 שעות ו 26דקות, בשעה 00:00 UTC
רוח 8קשר מכיוון מזרח
טמפרטורת 30 צלסיוס
לחות 84%
לחץ 1009 hPa
ראות: 9000מטר
מעט עננים בגובה 1800רגל

METAR: MZBZ 270000Z 10008KT 9000 FEW018 30/27 A2980 Q1009 NOSIG RMK HZ FU-N

זמן: 23:26 (05:26 UTC)

תחזית

הדו"ח נערך לפני 8 שעות ו 26דקות, בשעה 21:00 UTC
תחזית בתוקף מ 27 ב 00 UTC עד 27 ב 24 UTC
רוח 10קשר מכיוון מזרח/דרום-מזרח
ראות: 9000מטר
עננים פזורים בגובה 2400רגל

TAF: MZBZ 262100Z 2700/2724 11010KT 9000 SCT024

תצפיות ותחזיות מזג אוויר לגבי יותר מ- 4,000 שדות תעופה ברחבי העולם. דוחות METAR ו- TAF.

התחנות הזמינות מסומנות בנקודות צהובות ואדומות על גבי המפה.

העבר את העכבר לנקודה הצבעונית על מנת לראות את שם התחנה.

לאחר מכן, לחץ כדי לראות את תוכן ואת תחזיות מזג האוויר.

כדי לשנות את המפה: לחץ על הכפתורים הירוקים עם הפלוס השחור כדי להתקרב; על הכפתור הירוק עם המקף כדי להתרחק; או בחיצים הירוקים למפות סמוכות.


METAR-TAF: